<?xml version="1.0" encoding="UTF-8" standalone="no" ?>
<gpx xmlns="http://www.topografix.com/GPX/1/1" xmlns:xsi="http://www.w3.org/2001/XMLSchema-instance" xsi:schemaLocation="http://www.topografix.com/GPX/1/1 http://www.topografix.com/GPX/1/1/gpx.xsd" version="1.1" creator="VisuGPX - https://www.visugpx.com">
  <metadata>
    <name>circuit officiel </name>
    <desc><![CDATA[24 h vtt rouen]]></desc>
  </metadata>
  <trk>
    <name><![CDATA[2016-04-08 20-37-S1]]></name>
    <trkseg>
      <trkpt lat="49.42901" lon="1.13682">
        <ele>156</ele>
        <time>2016-04-08T18:37:59Z</time>
      </trkpt>
      <trkpt lat="49.42906" lon="1.13654">
        <ele>144</ele>
        <time>2016-04-08T18:42:17Z</time>
      </trkpt>
      <trkpt lat="49.42902" lon="1.13625">
        <ele>143</ele>
        <time>2016-04-08T18:42:26Z</time>
      </trkpt>
      <trkpt lat="49.42905" lon="1.13656">
        <ele>143</ele>
        <time>2016-04-08T18:42:45Z</time>
      </trkpt>
      <trkpt lat="49.42912" lon="1.13685">
        <ele>145</ele>
        <time>2016-04-08T18:42:53Z</time>
      </trkpt>
      <trkpt lat="49.42928" lon="1.13696">
        <ele>157</ele>
        <time>2016-04-08T18:47:08Z</time>
      </trkpt>
      <trkpt lat="49.42946" lon="1.13709">
        <ele>155</ele>
        <time>2016-04-08T18:47:16Z</time>
      </trkpt>
      <trkpt lat="49.42965" lon="1.1371">
        <ele>158</ele>
        <time>2016-04-08T18:47:22Z</time>
      </trkpt>
      <trkpt lat="49.42981" lon="1.1369">
        <ele>160</ele>
        <time>2016-04-08T18:47:28Z</time>
      </trkpt>
      <trkpt lat="49.42997" lon="1.13672">
        <ele>157</ele>
        <time>2016-04-08T18:47:35Z</time>
      </trkpt>
      <trkpt lat="49.42988" lon="1.13698">
        <ele>144</ele>
        <time>2016-04-08T18:47:44Z</time>
      </trkpt>
      <trkpt lat="49.42975" lon="1.13721">
        <ele>149</ele>
        <time>2016-04-08T18:47:54Z</time>
      </trkpt>
      <trkpt lat="49.4296" lon="1.13739">
        <ele>148</ele>
        <time>2016-04-08T18:48:02Z</time>
      </trkpt>
      <trkpt lat="49.42949" lon="1.13764">
        <ele>153</ele>
        <time>2016-04-08T18:48:11Z</time>
      </trkpt>
      <trkpt lat="49.42956" lon="1.13791">
        <ele>148</ele>
        <time>2016-04-08T18:48:18Z</time>
      </trkpt>
      <trkpt lat="49.42962" lon="1.13819">
        <ele>152</ele>
        <time>2016-04-08T18:48:39Z</time>
      </trkpt>
      <trkpt lat="49.42978" lon="1.13831">
        <ele>152</ele>
        <time>2016-04-08T18:48:50Z</time>
      </trkpt>
      <trkpt lat="49.42997" lon="1.13822">
        <ele>150</ele>
        <time>2016-04-08T18:48:55Z</time>
      </trkpt>
      <trkpt lat="49.43009" lon="1.13799">
        <ele>150</ele>
        <time>2016-04-08T18:49:03Z</time>
      </trkpt>
      <trkpt lat="49.43027" lon="1.13811">
        <ele>148</ele>
        <time>2016-04-08T18:49:10Z</time>
      </trkpt>
      <trkpt lat="49.43046" lon="1.13822">
        <ele>152</ele>
        <time>2016-04-08T18:49:19Z</time>
      </trkpt>
      <trkpt lat="49.43061" lon="1.13842">
        <ele>152</ele>
        <time>2016-04-08T18:49:27Z</time>
      </trkpt>
      <trkpt lat="49.43051" lon="1.13865">
        <ele>153</ele>
        <time>2016-04-08T18:49:43Z</time>
      </trkpt>
      <trkpt lat="49.43035" lon="1.13879">
        <ele>152</ele>
        <time>2016-04-08T18:49:54Z</time>
      </trkpt>
      <trkpt lat="49.43019" lon="1.13895">
        <ele>151</ele>
        <time>2016-04-08T18:50:05Z</time>
      </trkpt>
      <trkpt lat="49.43001" lon="1.1389">
        <ele>150</ele>
        <time>2016-04-08T18:50:16Z</time>
      </trkpt>
      <trkpt lat="49.42985" lon="1.13871">
        <ele>148</ele>
        <time>2016-04-08T18:50:25Z</time>
      </trkpt>
      <trkpt lat="49.42974" lon="1.13846">
        <ele>146</ele>
        <time>2016-04-08T18:50:33Z</time>
      </trkpt>
      <trkpt lat="49.4296" lon="1.13825">
        <ele>145</ele>
        <time>2016-04-08T18:50:41Z</time>
      </trkpt>
      <trkpt lat="49.42941" lon="1.13833">
        <ele>145</ele>
        <time>2016-04-08T18:50:50Z</time>
      </trkpt>
      <trkpt lat="49.42928" lon="1.13853">
        <ele>145</ele>
        <time>2016-04-08T18:50:58Z</time>
      </trkpt>
      <trkpt lat="49.42914" lon="1.13871">
        <ele>145</ele>
        <time>2016-04-08T18:51:05Z</time>
      </trkpt>
      <trkpt lat="49.42911" lon="1.139">
        <ele>146</ele>
        <time>2016-04-08T18:51:14Z</time>
      </trkpt>
      <trkpt lat="49.42903" lon="1.13928">
        <ele>145</ele>
        <time>2016-04-08T18:51:23Z</time>
      </trkpt>
      <trkpt lat="49.42922" lon="1.13928">
        <ele>144</ele>
        <time>2016-04-08T18:51:33Z</time>
      </trkpt>
      <trkpt lat="49.42935" lon="1.13909">
        <ele>143</ele>
        <time>2016-04-08T18:51:39Z</time>
      </trkpt>
      <trkpt lat="49.4295" lon="1.1389">
        <ele>141</ele>
        <time>2016-04-08T18:51:45Z</time>
      </trkpt>
      <trkpt lat="49.42968" lon="1.13887">
        <ele>142</ele>
        <time>2016-04-08T18:51:54Z</time>
      </trkpt>
      <trkpt lat="49.42964" lon="1.13915">
        <ele>144</ele>
        <time>2016-04-08T18:52:09Z</time>
      </trkpt>
      <trkpt lat="49.42951" lon="1.13936">
        <ele>143</ele>
        <time>2016-04-08T18:52:18Z</time>
      </trkpt>
      <trkpt lat="49.42935" lon="1.13957">
        <ele>143</ele>
        <time>2016-04-08T18:52:28Z</time>
      </trkpt>
      <trkpt lat="49.42926" lon="1.13982">
        <ele>142</ele>
        <time>2016-04-08T18:52:36Z</time>
      </trkpt>
      <trkpt lat="49.42923" lon="1.14013">
        <ele>141</ele>
        <time>2016-04-08T18:52:41Z</time>
      </trkpt>
      <trkpt lat="49.42938" lon="1.14038">
        <ele>141</ele>
        <time>2016-04-08T18:52:45Z</time>
      </trkpt>
      <trkpt lat="49.42957" lon="1.14039">
        <ele>143</ele>
        <time>2016-04-08T18:52:50Z</time>
      </trkpt>
      <trkpt lat="49.42974" lon="1.14027">
        <ele>146</ele>
        <time>2016-04-08T18:52:56Z</time>
      </trkpt>
      <trkpt lat="49.42991" lon="1.14017">
        <ele>148</ele>
        <time>2016-04-08T18:53:04Z</time>
      </trkpt>
      <trkpt lat="49.43005" lon="1.13998">
        <ele>147</ele>
        <time>2016-04-08T18:53:12Z</time>
      </trkpt>
      <trkpt lat="49.43023" lon="1.14003">
        <ele>148</ele>
        <time>2016-04-08T18:53:26Z</time>
      </trkpt>
      <trkpt lat="49.43037" lon="1.14025">
        <ele>150</ele>
        <time>2016-04-08T18:53:34Z</time>
      </trkpt>
      <trkpt lat="49.43045" lon="1.14052">
        <ele>156</ele>
        <time>2016-04-08T18:53:41Z</time>
      </trkpt>
      <trkpt lat="49.43051" lon="1.14084">
        <ele>156</ele>
        <time>2016-04-08T18:53:46Z</time>
      </trkpt>
      <trkpt lat="49.43051" lon="1.1412">
        <ele>154</ele>
        <time>2016-04-08T18:53:51Z</time>
      </trkpt>
      <trkpt lat="49.43062" lon="1.14145">
        <ele>154</ele>
        <time>2016-04-08T18:54:00Z</time>
      </trkpt>
      <trkpt lat="49.43058" lon="1.14173">
        <ele>145</ele>
        <time>2016-04-08T18:54:32Z</time>
      </trkpt>
      <trkpt lat="49.43071" lon="1.14195">
        <ele>145</ele>
        <time>2016-04-08T18:54:38Z</time>
      </trkpt>
      <trkpt lat="49.43074" lon="1.14204">
        <ele>136</ele>
        <time>2016-04-08T18:55:45Z</time>
      </trkpt>
      <trkpt lat="49.43058" lon="1.14221">
        <ele>136</ele>
        <time>2016-04-08T18:55:58Z</time>
      </trkpt>
      <trkpt lat="49.43056" lon="1.14192">
        <ele>138</ele>
        <time>2016-04-08T18:56:13Z</time>
      </trkpt>
      <trkpt lat="49.43038" lon="1.14186">
        <ele>141</ele>
        <time>2016-04-08T18:57:10Z</time>
      </trkpt>
      <trkpt lat="49.43035" lon="1.1418">
        <ele>142</ele>
        <time>2016-04-08T18:57:35Z</time>
      </trkpt>
      <trkpt lat="49.43034" lon="1.14152">
        <ele>140</ele>
        <time>2016-04-08T18:57:47Z</time>
      </trkpt>
      <trkpt lat="49.43019" lon="1.14135">
        <ele>145</ele>
        <time>2016-04-08T18:58:01Z</time>
      </trkpt>
      <trkpt lat="49.43" lon="1.14126">
        <ele>146</ele>
        <time>2016-04-08T18:58:09Z</time>
      </trkpt>
      <trkpt lat="49.42983" lon="1.14114">
        <ele>146</ele>
        <time>2016-04-08T18:58:22Z</time>
      </trkpt>
      <trkpt lat="49.42964" lon="1.14114">
        <ele>148</ele>
        <time>2016-04-08T18:58:28Z</time>
      </trkpt>
      <trkpt lat="49.42946" lon="1.1412">
        <ele>148</ele>
        <time>2016-04-08T18:58:33Z</time>
      </trkpt>
      <trkpt lat="49.42928" lon="1.1411">
        <ele>149</ele>
        <time>2016-04-08T18:58:38Z</time>
      </trkpt>
      <trkpt lat="49.42917" lon="1.14087">
        <ele>149</ele>
        <time>2016-04-08T18:58:43Z</time>
      </trkpt>
      <trkpt lat="49.42901" lon="1.141">
        <ele>145</ele>
        <time>2016-04-08T18:59:00Z</time>
      </trkpt>
      <trkpt lat="49.42885" lon="1.14116">
        <ele>144</ele>
        <time>2016-04-08T19:00:24Z</time>
      </trkpt>
      <trkpt lat="49.42868" lon="1.14122">
        <ele>141</ele>
        <time>2016-04-08T19:00:31Z</time>
      </trkpt>
      <trkpt lat="49.42854" lon="1.14102">
        <ele>137</ele>
        <time>2016-04-08T19:00:35Z</time>
      </trkpt>
      <trkpt lat="49.42845" lon="1.14076">
        <ele>136</ele>
        <time>2016-04-08T19:00:41Z</time>
      </trkpt>
      <trkpt lat="49.42827" lon="1.14064">
        <ele>135</ele>
        <time>2016-04-08T19:00:47Z</time>
      </trkpt>
      <trkpt lat="49.4281" lon="1.14075">
        <ele>135</ele>
        <time>2016-04-08T19:00:54Z</time>
      </trkpt>
      <trkpt lat="49.42815" lon="1.14104">
        <ele>136</ele>
        <time>2016-04-08T19:01:02Z</time>
      </trkpt>
      <trkpt lat="49.42824" lon="1.14129">
        <ele>138</ele>
        <time>2016-04-08T19:01:10Z</time>
      </trkpt>
      <trkpt lat="49.4282" lon="1.14156">
        <ele>138</ele>
        <time>2016-04-08T19:01:24Z</time>
      </trkpt>
      <trkpt lat="49.42804" lon="1.1417">
        <ele>138</ele>
        <time>2016-04-08T19:01:35Z</time>
      </trkpt>
      <trkpt lat="49.42789" lon="1.14188">
        <ele>146</ele>
        <time>2016-04-08T19:01:47Z</time>
      </trkpt>
      <trkpt lat="49.4277" lon="1.14191">
        <ele>147</ele>
        <time>2016-04-08T19:01:58Z</time>
      </trkpt>
      <trkpt lat="49.4275" lon="1.1419">
        <ele>148</ele>
        <time>2016-04-08T19:02:08Z</time>
      </trkpt>
      <trkpt lat="49.42736" lon="1.14169">
        <ele>153</ele>
        <time>2016-04-08T19:02:22Z</time>
      </trkpt>
      <trkpt lat="49.42727" lon="1.14141">
        <ele>155</ele>
        <time>2016-04-08T19:02:32Z</time>
      </trkpt>
      <trkpt lat="49.42717" lon="1.14115">
        <ele>151</ele>
        <time>2016-04-08T19:02:41Z</time>
      </trkpt>
      <trkpt lat="49.42704" lon="1.14096">
        <ele>156</ele>
        <time>2016-04-08T19:02:50Z</time>
      </trkpt>
      <trkpt lat="49.42699" lon="1.14069">
        <ele>156</ele>
        <time>2016-04-08T19:03:01Z</time>
      </trkpt>
      <trkpt lat="49.42701" lon="1.1404">
        <ele>157</ele>
        <time>2016-04-08T19:03:10Z</time>
      </trkpt>
      <trkpt lat="49.42698" lon="1.14012">
        <ele>159</ele>
        <time>2016-04-08T19:03:22Z</time>
      </trkpt>
      <trkpt lat="49.42689" lon="1.13987">
        <ele>156</ele>
        <time>2016-04-08T19:03:30Z</time>
      </trkpt>
      <trkpt lat="49.42674" lon="1.1397">
        <ele>149</ele>
        <time>2016-04-08T19:03:39Z</time>
      </trkpt>
      <trkpt lat="49.42669" lon="1.13944">
        <ele>147</ele>
        <time>2016-04-08T19:03:53Z</time>
      </trkpt>
      <trkpt lat="49.42689" lon="1.1394">
        <ele>147</ele>
        <time>2016-04-08T19:04:01Z</time>
      </trkpt>
      <trkpt lat="49.42707" lon="1.13924">
        <ele>147</ele>
        <time>2016-04-08T19:04:09Z</time>
      </trkpt>
      <trkpt lat="49.42718" lon="1.13898">
        <ele>146</ele>
        <time>2016-04-08T19:04:17Z</time>
      </trkpt>
      <trkpt lat="49.42725" lon="1.13871">
        <ele>145</ele>
        <time>2016-04-08T19:04:25Z</time>
      </trkpt>
      <trkpt lat="49.42709" lon="1.13852">
        <ele>145</ele>
        <time>2016-04-08T19:04:33Z</time>
      </trkpt>
      <trkpt lat="49.4269" lon="1.13857">
        <ele>145</ele>
        <time>2016-04-08T19:04:42Z</time>
      </trkpt>
      <trkpt lat="49.42674" lon="1.13875">
        <ele>145</ele>
        <time>2016-04-08T19:04:50Z</time>
      </trkpt>
      <trkpt lat="49.42659" lon="1.13892">
        <ele>144</ele>
        <time>2016-04-08T19:04:59Z</time>
      </trkpt>
      <trkpt lat="49.42644" lon="1.13906">
        <ele>144</ele>
        <time>2016-04-08T19:05:07Z</time>
      </trkpt>
      <trkpt lat="49.42627" lon="1.13891">
        <ele>146</ele>
        <time>2016-04-08T19:05:18Z</time>
      </trkpt>
      <trkpt lat="49.42608" lon="1.13883">
        <ele>147</ele>
        <time>2016-04-08T19:05:26Z</time>
      </trkpt>
      <trkpt lat="49.42594" lon="1.13863">
        <ele>146</ele>
        <time>2016-04-08T19:05:34Z</time>
      </trkpt>
      <trkpt lat="49.42606" lon="1.13841">
        <ele>147</ele>
        <time>2016-04-08T19:05:43Z</time>
      </trkpt>
      <trkpt lat="49.42624" lon="1.13832">
        <ele>148</ele>
        <time>2016-04-08T19:05:51Z</time>
      </trkpt>
      <trkpt lat="49.42643" lon="1.13821">
        <ele>149</ele>
        <time>2016-04-08T19:05:59Z</time>
      </trkpt>
      <trkpt lat="49.42647" lon="1.13794">
        <ele>149</ele>
        <time>2016-04-08T19:06:08Z</time>
      </trkpt>
      <trkpt lat="49.4263" lon="1.13802">
        <ele>145</ele>
        <time>2016-04-08T19:07:36Z</time>
      </trkpt>
      <trkpt lat="49.42611" lon="1.13812">
        <ele>144</ele>
        <time>2016-04-08T19:07:40Z</time>
      </trkpt>
      <trkpt lat="49.42591" lon="1.13825">
        <ele>142</ele>
        <time>2016-04-08T19:07:45Z</time>
      </trkpt>
      <trkpt lat="49.4258" lon="1.13848">
        <ele>142</ele>
        <time>2016-04-08T19:07:51Z</time>
      </trkpt>
      <trkpt lat="49.42567" lon="1.13867">
        <ele>141</ele>
        <time>2016-04-08T19:09:59Z</time>
      </trkpt>
      <trkpt lat="49.42579" lon="1.13892">
        <ele>141</ele>
        <time>2016-04-08T19:10:10Z</time>
      </trkpt>
      <trkpt lat="49.42586" lon="1.13921">
        <ele>140</ele>
        <time>2016-04-08T19:10:18Z</time>
      </trkpt>
      <trkpt lat="49.42593" lon="1.13951">
        <ele>140</ele>
        <time>2016-04-08T19:10:26Z</time>
      </trkpt>
      <trkpt lat="49.42598" lon="1.13979">
        <ele>139</ele>
        <time>2016-04-08T19:11:30Z</time>
      </trkpt>
      <trkpt lat="49.42605" lon="1.14008">
        <ele>140</ele>
        <time>2016-04-08T19:11:37Z</time>
      </trkpt>
      <trkpt lat="49.42611" lon="1.14041">
        <ele>139</ele>
        <time>2016-04-08T19:11:42Z</time>
      </trkpt>
      <trkpt lat="49.42617" lon="1.14071">
        <ele>139</ele>
        <time>2016-04-08T19:11:46Z</time>
      </trkpt>
      <trkpt lat="49.42622" lon="1.14099">
        <ele>137</ele>
        <time>2016-04-08T19:11:50Z</time>
      </trkpt>
      <trkpt lat="49.42625" lon="1.14129">
        <ele>138</ele>
        <time>2016-04-08T19:11:54Z</time>
      </trkpt>
      <trkpt lat="49.42629" lon="1.14156">
        <ele>139</ele>
        <time>2016-04-08T19:11:58Z</time>
      </trkpt>
      <trkpt lat="49.42636" lon="1.14186">
        <ele>139</ele>
        <time>2016-04-08T19:12:04Z</time>
      </trkpt>
      <trkpt lat="49.42655" lon="1.14202">
        <ele>137</ele>
        <time>2016-04-08T19:12:09Z</time>
      </trkpt>
      <trkpt lat="49.42671" lon="1.14221">
        <ele>138</ele>
        <time>2016-04-08T19:12:15Z</time>
      </trkpt>
      <trkpt lat="49.42676" lon="1.14248">
        <ele>137</ele>
        <time>2016-04-08T19:12:21Z</time>
      </trkpt>
      <trkpt lat="49.42679" lon="1.14278">
        <ele>136</ele>
        <time>2016-04-08T19:12:28Z</time>
      </trkpt>
      <trkpt lat="49.42682" lon="1.14306">
        <ele>133</ele>
        <time>2016-04-08T19:12:34Z</time>
      </trkpt>
      <trkpt lat="49.42683" lon="1.14336">
        <ele>143</ele>
        <time>2016-04-08T19:12:43Z</time>
      </trkpt>
      <trkpt lat="49.42694" lon="1.14363">
        <ele>144</ele>
        <time>2016-04-08T19:12:50Z</time>
      </trkpt>
      <trkpt lat="49.42701" lon="1.14389">
        <ele>137</ele>
        <time>2016-04-08T19:12:54Z</time>
      </trkpt>
      <trkpt lat="49.42706" lon="1.1442">
        <ele>137</ele>
        <time>2016-04-08T19:12:59Z</time>
      </trkpt>
      <trkpt lat="49.4271" lon="1.14452">
        <ele>138</ele>
        <time>2016-04-08T19:13:05Z</time>
      </trkpt>
      <trkpt lat="49.42718" lon="1.14478">
        <ele>137</ele>
        <time>2016-04-08T19:13:09Z</time>
      </trkpt>
      <trkpt lat="49.42729" lon="1.14504">
        <ele>136</ele>
        <time>2016-04-08T19:13:15Z</time>
      </trkpt>
      <trkpt lat="49.42734" lon="1.14532">
        <ele>136</ele>
        <time>2016-04-08T19:13:20Z</time>
      </trkpt>
      <trkpt lat="49.42741" lon="1.1456">
        <ele>142</ele>
        <time>2016-04-08T19:13:26Z</time>
      </trkpt>
      <trkpt lat="49.42751" lon="1.14584">
        <ele>144</ele>
        <time>2016-04-08T19:13:55Z</time>
      </trkpt>
      <trkpt lat="49.42744" lon="1.14611">
        <ele>145</ele>
        <time>2016-04-08T19:15:11Z</time>
      </trkpt>
      <trkpt lat="49.42747" lon="1.14642">
        <ele>148</ele>
        <time>2016-04-08T19:15:20Z</time>
      </trkpt>
      <trkpt lat="49.42748" lon="1.14672">
        <ele>143</ele>
        <time>2016-04-08T19:15:27Z</time>
      </trkpt>
      <trkpt lat="49.42752" lon="1.14704">
        <ele>145</ele>
        <time>2016-04-08T19:15:33Z</time>
      </trkpt>
      <trkpt lat="49.42755" lon="1.14733">
        <ele>145</ele>
        <time>2016-04-08T19:15:39Z</time>
      </trkpt>
      <trkpt lat="49.42765" lon="1.14759">
        <ele>143</ele>
        <time>2016-04-08T19:15:44Z</time>
      </trkpt>
      <trkpt lat="49.42779" lon="1.14784">
        <ele>140</ele>
        <time>2016-04-08T19:15:47Z</time>
      </trkpt>
      <trkpt lat="49.42792" lon="1.1481">
        <ele>137</ele>
        <time>2016-04-08T19:15:50Z</time>
      </trkpt>
      <trkpt lat="49.42789" lon="1.14843">
        <ele>137</ele>
        <time>2016-04-08T19:15:53Z</time>
      </trkpt>
      <trkpt lat="49.42787" lon="1.14873">
        <ele>140</ele>
        <time>2016-04-08T19:16:34Z</time>
      </trkpt>
      <trkpt lat="49.42792" lon="1.14907">
        <ele>138</ele>
        <time>2016-04-08T19:16:38Z</time>
      </trkpt>
      <trkpt lat="49.428" lon="1.14937">
        <ele>136</ele>
        <time>2016-04-08T19:16:42Z</time>
      </trkpt>
      <trkpt lat="49.42806" lon="1.14964">
        <ele>135</ele>
        <time>2016-04-08T19:16:46Z</time>
      </trkpt>
      <trkpt lat="49.42799" lon="1.14992">
        <ele>138</ele>
        <time>2016-04-08T19:16:52Z</time>
      </trkpt>
      <trkpt lat="49.42798" lon="1.15023">
        <ele>135</ele>
        <time>2016-04-08T19:16:58Z</time>
      </trkpt>
      <trkpt lat="49.42799" lon="1.15057">
        <ele>134</ele>
        <time>2016-04-08T19:17:02Z</time>
      </trkpt>
      <trkpt lat="49.42788" lon="1.15082">
        <ele>135</ele>
        <time>2016-04-08T19:17:09Z</time>
      </trkpt>
      <trkpt lat="49.42785" lon="1.15112">
        <ele>139</ele>
        <time>2016-04-08T19:17:15Z</time>
      </trkpt>
      <trkpt lat="49.42775" lon="1.15137">
        <ele>143</ele>
        <time>2016-04-08T19:17:22Z</time>
      </trkpt>
      <trkpt lat="49.42763" lon="1.15162">
        <ele>138</ele>
        <time>2016-04-08T19:17:30Z</time>
      </trkpt>
      <trkpt lat="49.42748" lon="1.15184">
        <ele>139</ele>
        <time>2016-04-08T19:17:38Z</time>
      </trkpt>
      <trkpt lat="49.4273" lon="1.15186">
        <ele>145</ele>
        <time>2016-04-08T19:18:05Z</time>
      </trkpt>
      <trkpt lat="49.42743" lon="1.15208">
        <ele>143</ele>
        <time>2016-04-08T19:19:25Z</time>
      </trkpt>
      <trkpt lat="49.42741" lon="1.15239">
        <ele>145</ele>
        <time>2016-04-08T19:19:34Z</time>
      </trkpt>
      <trkpt lat="49.42745" lon="1.15277">
        <ele>143</ele>
        <time>2016-04-08T19:19:38Z</time>
      </trkpt>
      <trkpt lat="49.42749" lon="1.15309">
        <ele>141</ele>
        <time>2016-04-08T19:19:42Z</time>
      </trkpt>
      <trkpt lat="49.42752" lon="1.15337">
        <ele>135</ele>
        <time>2016-04-08T19:19:47Z</time>
      </trkpt>
      <trkpt lat="49.42745" lon="1.15367">
        <ele>131</ele>
        <time>2016-04-08T19:19:56Z</time>
      </trkpt>
      <trkpt lat="49.42749" lon="1.15401">
        <ele>127</ele>
        <time>2016-04-08T19:20:00Z</time>
      </trkpt>
      <trkpt lat="49.42745" lon="1.15431">
        <ele>123</ele>
        <time>2016-04-08T19:20:04Z</time>
      </trkpt>
      <trkpt lat="49.42731" lon="1.15452">
        <ele>128</ele>
        <time>2016-04-08T19:20:09Z</time>
      </trkpt>
      <trkpt lat="49.42724" lon="1.15478">
        <ele>123</ele>
        <time>2016-04-08T19:20:17Z</time>
      </trkpt>
      <trkpt lat="49.42717" lon="1.15505">
        <ele>125</ele>
        <time>2016-04-08T19:20:42Z</time>
      </trkpt>
      <trkpt lat="49.42735" lon="1.15514">
        <ele>125</ele>
        <time>2016-04-08T19:20:48Z</time>
      </trkpt>
      <trkpt lat="49.42743" lon="1.15483">
        <ele>122</ele>
        <time>2016-04-08T19:23:07Z</time>
      </trkpt>
      <trkpt lat="49.42761" lon="1.15476">
        <ele>136</ele>
        <time>2016-04-08T19:23:52Z</time>
      </trkpt>
      <trkpt lat="49.42761" lon="1.15504">
        <ele>124</ele>
        <time>2016-04-08T19:30:44Z</time>
      </trkpt>
      <trkpt lat="49.42753" lon="1.1553">
        <ele>128</ele>
        <time>2016-04-08T19:30:58Z</time>
      </trkpt>
      <trkpt lat="49.4274" lon="1.15551">
        <ele>131</ele>
        <time>2016-04-08T19:31:08Z</time>
      </trkpt>
      <trkpt lat="49.42726" lon="1.1557">
        <ele>132</ele>
        <time>2016-04-08T19:31:17Z</time>
      </trkpt>
      <trkpt lat="49.42708" lon="1.15581">
        <ele>127</ele>
        <time>2016-04-08T19:31:27Z</time>
      </trkpt>
      <trkpt lat="49.4269" lon="1.1559">
        <ele>125</ele>
        <time>2016-04-08T19:31:40Z</time>
      </trkpt>
      <trkpt lat="49.42674" lon="1.15601">
        <ele>124</ele>
        <time>2016-04-08T19:32:02Z</time>
      </trkpt>
      <trkpt lat="49.42656" lon="1.15603">
        <ele>124</ele>
        <time>2016-04-08T19:32:13Z</time>
      </trkpt>
      <trkpt lat="49.42637" lon="1.15609">
        <ele>126</ele>
        <time>2016-04-08T19:32:21Z</time>
      </trkpt>
      <trkpt lat="49.42618" lon="1.15616">
        <ele>126</ele>
        <time>2016-04-08T19:32:30Z</time>
      </trkpt>
      <trkpt lat="49.42599" lon="1.15624">
        <ele>127</ele>
        <time>2016-04-08T19:32:39Z</time>
      </trkpt>
      <trkpt lat="49.4258" lon="1.15629">
        <ele>127</ele>
        <time>2016-04-08T19:32:48Z</time>
      </trkpt>
      <trkpt lat="49.42561" lon="1.15633">
        <ele>129</ele>
        <time>2016-04-08T19:32:57Z</time>
      </trkpt>
      <trkpt lat="49.42542" lon="1.15623">
        <ele>126</ele>
        <time>2016-04-08T19:33:06Z</time>
      </trkpt>
      <trkpt lat="49.42525" lon="1.15604">
        <ele>127</ele>
        <time>2016-04-08T19:33:14Z</time>
      </trkpt>
      <trkpt lat="49.4251" lon="1.15586">
        <ele>128</ele>
        <time>2016-04-08T19:33:21Z</time>
      </trkpt>
      <trkpt lat="49.42495" lon="1.15566">
        <ele>128</ele>
        <time>2016-04-08T19:33:28Z</time>
      </trkpt>
      <trkpt lat="49.4248" lon="1.15545">
        <ele>129</ele>
        <time>2016-04-08T19:33:35Z</time>
      </trkpt>
      <trkpt lat="49.42466" lon="1.15524">
        <ele>130</ele>
        <time>2016-04-08T19:33:42Z</time>
      </trkpt>
      <trkpt lat="49.42451" lon="1.15505">
        <ele>132</ele>
        <time>2016-04-08T19:33:49Z</time>
      </trkpt>
      <trkpt lat="49.42438" lon="1.15486">
        <ele>132</ele>
        <time>2016-04-08T19:33:56Z</time>
      </trkpt>
      <trkpt lat="49.42424" lon="1.15467">
        <ele>132</ele>
        <time>2016-04-08T19:34:03Z</time>
      </trkpt>
      <trkpt lat="49.42408" lon="1.15446">
        <ele>132</ele>
        <time>2016-04-08T19:34:10Z</time>
      </trkpt>
      <trkpt lat="49.42394" lon="1.15425">
        <ele>133</ele>
        <time>2016-04-08T19:34:17Z</time>
      </trkpt>
      <trkpt lat="49.4238" lon="1.15406">
        <ele>133</ele>
        <time>2016-04-08T19:34:24Z</time>
      </trkpt>
      <trkpt lat="49.42387" lon="1.15379">
        <ele>142</ele>
        <time>2016-04-08T19:35:20Z</time>
      </trkpt>
      <trkpt lat="49.42401" lon="1.1536">
        <ele>143</ele>
        <time>2016-04-08T19:35:26Z</time>
      </trkpt>
      <trkpt lat="49.42415" lon="1.15339">
        <ele>143</ele>
        <time>2016-04-08T19:35:34Z</time>
      </trkpt>
      <trkpt lat="49.42427" lon="1.15317">
        <ele>141</ele>
        <time>2016-04-08T19:35:44Z</time>
      </trkpt>
      <trkpt lat="49.42443" lon="1.15302">
        <ele>143</ele>
        <time>2016-04-08T19:36:27Z</time>
      </trkpt>
      <trkpt lat="49.4246" lon="1.15288">
        <ele>144</ele>
        <time>2016-04-08T19:36:37Z</time>
      </trkpt>
      <trkpt lat="49.42477" lon="1.15282">
        <ele>143</ele>
        <time>2016-04-08T19:36:45Z</time>
      </trkpt>
      <trkpt lat="49.42496" lon="1.15273">
        <ele>143</ele>
        <time>2016-04-08T19:36:53Z</time>
      </trkpt>
      <trkpt lat="49.42514" lon="1.15267">
        <ele>144</ele>
        <time>2016-04-08T19:37:00Z</time>
      </trkpt>
      <trkpt lat="49.42533" lon="1.15255">
        <ele>143</ele>
        <time>2016-04-08T19:37:08Z</time>
      </trkpt>
      <trkpt lat="49.42535" lon="1.15227">
        <ele>142</ele>
        <time>2016-04-08T19:37:18Z</time>
      </trkpt>
      <trkpt lat="49.42541" lon="1.152">
        <ele>143</ele>
        <time>2016-04-08T19:37:25Z</time>
      </trkpt>
      <trkpt lat="49.42555" lon="1.15175">
        <ele>143</ele>
        <time>2016-04-08T19:37:32Z</time>
      </trkpt>
      <trkpt lat="49.42568" lon="1.15154">
        <ele>143</ele>
        <time>2016-04-08T19:37:37Z</time>
      </trkpt>
      <trkpt lat="49.4258" lon="1.15131">
        <ele>144</ele>
        <time>2016-04-08T19:37:43Z</time>
      </trkpt>
      <trkpt lat="49.42593" lon="1.15109">
        <ele>143</ele>
        <time>2016-04-08T19:37:50Z</time>
      </trkpt>
      <trkpt lat="49.42608" lon="1.15088">
        <ele>143</ele>
        <time>2016-04-08T19:37:58Z</time>
      </trkpt>
      <trkpt lat="49.4262" lon="1.15065">
        <ele>141</ele>
        <time>2016-04-08T19:38:06Z</time>
      </trkpt>
      <trkpt lat="49.42633" lon="1.15042">
        <ele>142</ele>
        <time>2016-04-08T19:38:14Z</time>
      </trkpt>
      <trkpt lat="49.42646" lon="1.15063">
        <ele>142</ele>
        <time>2016-04-08T19:38:24Z</time>
      </trkpt>
      <trkpt lat="49.42649" lon="1.15091">
        <ele>142</ele>
        <time>2016-04-08T19:38:31Z</time>
      </trkpt>
      <trkpt lat="49.42651" lon="1.15122">
        <ele>141</ele>
        <time>2016-04-08T19:38:39Z</time>
      </trkpt>
      <trkpt lat="49.42653" lon="1.15121">
        <ele>142</ele>
        <time>2016-04-08T19:41:14Z</time>
      </trkpt>
      <trkpt lat="49.42671" lon="1.15121">
        <ele>131</ele>
        <time>2016-04-08T19:42:59Z</time>
      </trkpt>
      <trkpt lat="49.42687" lon="1.15106">
        <ele>140</ele>
        <time>2016-04-08T19:43:11Z</time>
      </trkpt>
      <trkpt lat="49.42695" lon="1.15081">
        <ele>143</ele>
        <time>2016-04-08T19:43:19Z</time>
      </trkpt>
      <trkpt lat="49.42704" lon="1.15052">
        <ele>143</ele>
        <time>2016-04-08T19:43:27Z</time>
      </trkpt>
      <trkpt lat="49.42715" lon="1.15028">
        <ele>143</ele>
        <time>2016-04-08T19:43:36Z</time>
      </trkpt>
      <trkpt lat="49.42726" lon="1.15003">
        <ele>143</ele>
        <time>2016-04-08T19:43:45Z</time>
      </trkpt>
      <trkpt lat="49.42737" lon="1.14977">
        <ele>143</ele>
        <time>2016-04-08T19:43:54Z</time>
      </trkpt>
      <trkpt lat="49.42742" lon="1.1495">
        <ele>143</ele>
        <time>2016-04-08T19:44:08Z</time>
      </trkpt>
      <trkpt lat="49.42755" lon="1.14929">
        <ele>142</ele>
        <time>2016-04-08T19:44:25Z</time>
      </trkpt>
      <trkpt lat="49.42767" lon="1.14905">
        <ele>142</ele>
        <time>2016-04-08T19:44:37Z</time>
      </trkpt>
      <trkpt lat="49.42772" lon="1.14877">
        <ele>142</ele>
        <time>2016-04-08T19:44:48Z</time>
      </trkpt>
      <trkpt lat="49.42773" lon="1.14847">
        <ele>141</ele>
        <time>2016-04-08T19:45:03Z</time>
      </trkpt>
      <trkpt lat="49.42762" lon="1.14823">
        <ele>143</ele>
        <time>2016-04-08T19:45:12Z</time>
      </trkpt>
      <trkpt lat="49.42751" lon="1.14798">
        <ele>142</ele>
        <time>2016-04-08T19:45:50Z</time>
      </trkpt>
      <trkpt lat="49.42747" lon="1.14769">
        <ele>141</ele>
        <time>2016-04-08T19:46:03Z</time>
      </trkpt>
      <trkpt lat="49.42742" lon="1.1474">
        <ele>140</ele>
        <time>2016-04-08T19:46:33Z</time>
      </trkpt>
      <trkpt lat="49.42735" lon="1.14708">
        <ele>141</ele>
        <time>2016-04-08T19:46:39Z</time>
      </trkpt>
      <trkpt lat="49.42727" lon="1.1468">
        <ele>143</ele>
        <time>2016-04-08T19:46:45Z</time>
      </trkpt>
      <trkpt lat="49.42722" lon="1.14653">
        <ele>144</ele>
        <time>2016-04-08T19:46:51Z</time>
      </trkpt>
      <trkpt lat="49.42719" lon="1.14622">
        <ele>144</ele>
        <time>2016-04-08T19:46:57Z</time>
      </trkpt>
      <trkpt lat="49.42714" lon="1.14594">
        <ele>144</ele>
        <time>2016-04-08T19:47:01Z</time>
      </trkpt>
      <trkpt lat="49.42701" lon="1.14567">
        <ele>145</ele>
        <time>2016-04-08T19:47:04Z</time>
      </trkpt>
      <trkpt lat="49.42695" lon="1.14532">
        <ele>144</ele>
        <time>2016-04-08T19:47:07Z</time>
      </trkpt>
      <trkpt lat="49.42689" lon="1.14493">
        <ele>144</ele>
        <time>2016-04-08T19:47:10Z</time>
      </trkpt>
      <trkpt lat="49.42681" lon="1.14456">
        <ele>144</ele>
        <time>2016-04-08T19:47:13Z</time>
      </trkpt>
      <trkpt lat="49.42675" lon="1.14419">
        <ele>144</ele>
        <time>2016-04-08T19:47:16Z</time>
      </trkpt>
      <trkpt lat="49.42669" lon="1.14385">
        <ele>144</ele>
        <time>2016-04-08T19:47:19Z</time>
      </trkpt>
      <trkpt lat="49.42663" lon="1.14349">
        <ele>143</ele>
        <time>2016-04-08T19:47:22Z</time>
      </trkpt>
      <trkpt lat="49.42659" lon="1.14315">
        <ele>143</ele>
        <time>2016-04-08T19:47:25Z</time>
      </trkpt>
      <trkpt lat="49.42652" lon="1.1428">
        <ele>142</ele>
        <time>2016-04-08T19:47:28Z</time>
      </trkpt>
      <trkpt lat="49.42645" lon="1.14243">
        <ele>142</ele>
        <time>2016-04-08T19:47:31Z</time>
      </trkpt>
      <trkpt lat="49.42638" lon="1.14205">
        <ele>141</ele>
        <time>2016-04-08T19:47:34Z</time>
      </trkpt>
      <trkpt lat="49.42631" lon="1.14168">
        <ele>142</ele>
        <time>2016-04-08T19:47:37Z</time>
      </trkpt>
      <trkpt lat="49.42625" lon="1.14133">
        <ele>142</ele>
        <time>2016-04-08T19:47:40Z</time>
      </trkpt>
      <trkpt lat="49.42619" lon="1.14095">
        <ele>142</ele>
        <time>2016-04-08T19:47:43Z</time>
      </trkpt>
      <trkpt lat="49.42615" lon="1.1406">
        <ele>142</ele>
        <time>2016-04-08T19:47:46Z</time>
      </trkpt>
      <trkpt lat="49.42607" lon="1.14026">
        <ele>141</ele>
        <time>2016-04-08T19:47:50Z</time>
      </trkpt>
      <trkpt lat="49.42596" lon="1.13999">
        <ele>142</ele>
        <time>2016-04-08T19:47:54Z</time>
      </trkpt>
      <trkpt lat="49.4258" lon="1.13982">
        <ele>143</ele>
        <time>2016-04-08T19:47:58Z</time>
      </trkpt>
      <trkpt lat="49.42568" lon="1.13962">
        <ele>142</ele>
        <time>2016-04-08T19:48:02Z</time>
      </trkpt>
      <trkpt lat="49.42561" lon="1.13935">
        <ele>142</ele>
        <time>2016-04-08T19:48:08Z</time>
      </trkpt>
      <trkpt lat="49.42552" lon="1.13906">
        <ele>141</ele>
        <time>2016-04-08T19:48:15Z</time>
      </trkpt>
      <trkpt lat="49.42538" lon="1.13886">
        <ele>142</ele>
        <time>2016-04-08T19:48:22Z</time>
      </trkpt>
      <trkpt lat="49.4252" lon="1.13873">
        <ele>142</ele>
        <time>2016-04-08T19:48:31Z</time>
      </trkpt>
      <trkpt lat="49.42503" lon="1.13889">
        <ele>142</ele>
        <time>2016-04-08T19:48:38Z</time>
      </trkpt>
      <trkpt lat="49.42488" lon="1.13903">
        <ele>142</ele>
        <time>2016-04-08T19:48:44Z</time>
      </trkpt>
      <trkpt lat="49.42472" lon="1.13918">
        <ele>142</ele>
        <time>2016-04-08T19:48:50Z</time>
      </trkpt>
      <trkpt lat="49.42454" lon="1.1393">
        <ele>143</ele>
        <time>2016-04-08T19:48:56Z</time>
      </trkpt>
      <trkpt lat="49.42436" lon="1.13945">
        <ele>144</ele>
        <time>2016-04-08T19:49:02Z</time>
      </trkpt>
      <trkpt lat="49.42418" lon="1.13954">
        <ele>152</ele>
        <time>2016-04-08T19:49:11Z</time>
      </trkpt>
      <trkpt lat="49.42403" lon="1.1397">
        <ele>149</ele>
        <time>2016-04-08T19:49:20Z</time>
      </trkpt>
      <trkpt lat="49.42385" lon="1.13978">
        <ele>149</ele>
        <time>2016-04-08T19:49:28Z</time>
      </trkpt>
      <trkpt lat="49.42369" lon="1.13991">
        <ele>150</ele>
        <time>2016-04-08T19:49:33Z</time>
      </trkpt>
      <trkpt lat="49.42351" lon="1.14008">
        <ele>151</ele>
        <time>2016-04-08T19:49:39Z</time>
      </trkpt>
      <trkpt lat="49.42333" lon="1.14023">
        <ele>153</ele>
        <time>2016-04-08T19:49:45Z</time>
      </trkpt>
      <trkpt lat="49.42315" lon="1.14037">
        <ele>152</ele>
        <time>2016-04-08T19:49:51Z</time>
      </trkpt>
      <trkpt lat="49.42299" lon="1.14051">
        <ele>151</ele>
        <time>2016-04-08T19:49:57Z</time>
      </trkpt>
      <trkpt lat="49.42312" lon="1.14032">
        <ele>150</ele>
        <time>2016-04-08T19:50:11Z</time>
      </trkpt>
      <trkpt lat="49.4233" lon="1.14017">
        <ele>150</ele>
        <time>2016-04-08T19:50:16Z</time>
      </trkpt>
      <trkpt lat="49.42347" lon="1.14006">
        <ele>150</ele>
        <time>2016-04-08T19:50:20Z</time>
      </trkpt>
      <trkpt lat="49.42363" lon="1.13993">
        <ele>149</ele>
        <time>2016-04-08T19:50:24Z</time>
      </trkpt>
      <trkpt lat="49.4238" lon="1.13979">
        <ele>150</ele>
        <time>2016-04-08T19:50:28Z</time>
      </trkpt>
      <trkpt lat="49.42396" lon="1.13966">
        <ele>150</ele>
        <time>2016-04-08T19:50:32Z</time>
      </trkpt>
      <trkpt lat="49.42417" lon="1.13948">
        <ele>148</ele>
        <time>2016-04-08T19:50:37Z</time>
      </trkpt>
      <trkpt lat="49.42435" lon="1.13935">
        <ele>148</ele>
        <time>2016-04-08T19:50:43Z</time>
      </trkpt>
      <trkpt lat="49.42454" lon="1.1392">
        <ele>148</ele>
        <time>2016-04-08T19:50:48Z</time>
      </trkpt>
      <trkpt lat="49.42472" lon="1.13904">
        <ele>148</ele>
        <time>2016-04-08T19:50:52Z</time>
      </trkpt>
      <trkpt lat="49.42492" lon="1.13887">
        <ele>148</ele>
        <time>2016-04-08T19:50:56Z</time>
      </trkpt>
      <trkpt lat="49.42508" lon="1.13873">
        <ele>148</ele>
        <time>2016-04-08T19:50:59Z</time>
      </trkpt>
      <trkpt lat="49.42528" lon="1.13855">
        <ele>148</ele>
        <time>2016-04-08T19:51:03Z</time>
      </trkpt>
      <trkpt lat="49.42549" lon="1.13838">
        <ele>148</ele>
        <time>2016-04-08T19:51:07Z</time>
      </trkpt>
      <trkpt lat="49.42569" lon="1.13822">
        <ele>147</ele>
        <time>2016-04-08T19:51:11Z</time>
      </trkpt>
      <trkpt lat="49.42586" lon="1.13809">
        <ele>147</ele>
        <time>2016-04-08T19:51:15Z</time>
      </trkpt>
      <trkpt lat="49.42607" lon="1.13795">
        <ele>146</ele>
        <time>2016-04-08T19:51:20Z</time>
      </trkpt>
      <trkpt lat="49.42626" lon="1.13782">
        <ele>145</ele>
        <time>2016-04-08T19:51:25Z</time>
      </trkpt>
      <trkpt lat="49.42644" lon="1.13774">
        <ele>146</ele>
        <time>2016-04-08T19:53:08Z</time>
      </trkpt>
      <trkpt lat="49.42633" lon="1.13748">
        <ele>146</ele>
        <time>2016-04-08T19:53:17Z</time>
      </trkpt>
      <trkpt lat="49.4262" lon="1.13723">
        <ele>146</ele>
        <time>2016-04-08T19:53:23Z</time>
      </trkpt>
      <trkpt lat="49.42637" lon="1.13733">
        <ele>145</ele>
        <time>2016-04-08T19:53:35Z</time>
      </trkpt>
      <trkpt lat="49.42649" lon="1.13754">
        <ele>144</ele>
        <time>2016-04-08T19:53:39Z</time>
      </trkpt>
      <trkpt lat="49.42665" lon="1.13772">
        <ele>145</ele>
        <time>2016-04-08T19:53:45Z</time>
      </trkpt>
      <trkpt lat="49.42682" lon="1.13761">
        <ele>145</ele>
        <time>2016-04-08T19:53:50Z</time>
      </trkpt>
      <trkpt lat="49.427" lon="1.13741">
        <ele>146</ele>
        <time>2016-04-08T19:53:55Z</time>
      </trkpt>
      <trkpt lat="49.42716" lon="1.13724">
        <ele>145</ele>
        <time>2016-04-08T19:53:58Z</time>
      </trkpt>
      <trkpt lat="49.42732" lon="1.13706">
        <ele>145</ele>
        <time>2016-04-08T19:54:01Z</time>
      </trkpt>
      <trkpt lat="49.42749" lon="1.13682">
        <ele>144</ele>
        <time>2016-04-08T19:54:04Z</time>
      </trkpt>
      <trkpt lat="49.42769" lon="1.13661">
        <ele>144</ele>
        <time>2016-04-08T19:54:07Z</time>
      </trkpt>
      <trkpt lat="49.42787" lon="1.13644">
        <ele>144</ele>
        <time>2016-04-08T19:54:11Z</time>
      </trkpt>
      <trkpt lat="49.42803" lon="1.13621">
        <ele>146</ele>
        <time>2016-04-08T19:54:16Z</time>
      </trkpt>
      <trkpt lat="49.42818" lon="1.13604">
        <ele>146</ele>
        <time>2016-04-08T19:54:20Z</time>
      </trkpt>
      <trkpt lat="49.42834" lon="1.13586">
        <ele>146</ele>
        <time>2016-04-08T19:54:24Z</time>
      </trkpt>
      <trkpt lat="49.42849" lon="1.13566">
        <ele>145</ele>
        <time>2016-04-08T19:54:28Z</time>
      </trkpt>
      <trkpt lat="49.42863" lon="1.13544">
        <ele>144</ele>
        <time>2016-04-08T19:54:33Z</time>
      </trkpt>
      <trkpt lat="49.42881" lon="1.13534">
        <ele>143</ele>
        <time>2016-04-08T19:54:49Z</time>
      </trkpt>
    </trkseg>
  </trk>
</gpx>